This is the latest recevied weather packets stored in our database for station/object SP1BMW-13. If no packets are shown the sender has not sent any weather packets the latest 10 day(s).
| Time | Temp. | Humidity | Pressure | Rain* | Wind** | Luminosity | Snow |
|---|---|---|---|---|---|---|---|
| 1787669645 | 24.44° C | 42% | 1018.1 hPa | 0 mm | 0.45 m/s, 71° | 361 W/m² | - |
| 1787669585 | 24.44° C | 41% | 1018 hPa | 0 mm | 2.24 m/s, 20° | 363 W/m² | - |
| 1787669525 | 24.44° C | 41% | 1018.1 hPa | 0 mm | 1.79 m/s, 56° | 365 W/m² | - |
| 1787669465 | 24.44° C | 40% | 1018 hPa | 0 mm | 0.89 m/s, 44° | 367 W/m² | - |
| 1787669405 | 24.44° C | 39% | 1017.9 hPa | 0 mm | 1.34 m/s, 49° | 371 W/m² | - |
| 1787669345 | 24.44° C | 40% | 1018 hPa | 0 mm | 2.24 m/s, 34° | 374 W/m² | - |
| 1787669285 | 24.44° C | 40% | 1017.9 hPa | 0 mm | 0 m/s | 376 W/m² | - |
| 1787669225 | 24.44° C | 40% | 1018 hPa | 0 mm | 0.89 m/s, 35° | 378 W/m² | - |
| 1787669165 | 23.89° C | 42% | 1018 hPa | 0 mm | 0 m/s | 380 W/m² | - |
| 1787669105 | 23.89° C | 42% | 1017.9 hPa | 0 mm | 0.45 m/s, 122° | 383 W/m² | - |
| 1787669045 | 23.89° C | 43% | 1018 hPa | 0 mm | 0 m/s | 385 W/m² | - |
| 1787668985 | 23.89° C | 40% | 1017.9 hPa | 0 mm | 0.89 m/s, 44° | 387 W/m² | - |
| 1787668925 | 23.89° C | 40% | 1017.8 hPa | 0 mm | 0 m/s | 389 W/m² | - |
| 1787668865 | 23.89° C | 42% | 1017.9 hPa | 0 mm | 0.45 m/s, 145° | 391 W/m² | - |
| 1787668805 | 23.89° C | 42% | 1017.8 hPa | 0 mm | 0.89 m/s, 40° | 392 W/m² | - |
| 1787668745 | 23.89° C | 43% | 1018 hPa | 0 mm | 0.89 m/s, 55° | 393 W/m² | - |
| 1787668685 | 23.89° C | 42% | 1017.9 hPa | 0 mm | 0.89 m/s, 45° | 395 W/m² | - |
| 1787668625 | 23.89° C | 41% | 1017.9 hPa | 0 mm | 0.45 m/s, 45° | 96 W/m² | - |
| 1787668565 | 23.89° C | 41% | 1017.9 hPa | 0 mm | 0.89 m/s, 61° | 392 W/m² | - |
| 1787668505 | 23.89° C | 42% | 1018.1 hPa | 0 mm | 0.89 m/s, 26° | 265 W/m² | - |
| 1787668445 | 23.89° C | 41% | 1017.8 hPa | 0 mm | 1.34 m/s, 13° | 393 W/m² | - |
| 1787668385 | 23.33° C | 43% | 1017.8 hPa | 0 mm | 0 m/s | 173 W/m² | - |
| 1787668325 | 23.33° C | 44% | 1017.9 hPa | 0 mm | 0.45 m/s, 51° | 434 W/m² | - |
| 1787668265 | 23.33° C | 42% | 1017.9 hPa | 0 mm | 1.34 m/s, 28° | 438 W/m² | - |
| 1787668205 | 23.33° C | 42% | 1017.8 hPa | 0 mm | 2.24 m/s, 63° | 446 W/m² | - |
* Rain latest hour (hover to see other rain measurements)
** Current wind speed in m/s (hover to see current wind gust speed)